Pythagoras — C6ZO4 — position and weather

sailwx.info

Track history (hours):
 
Tides and Currents Weather Stations Pressure Air Temp Water Temp Dewpoint Dewpoint Depression Visibility Wind Speed Wind Dir Waves Ship Positions

Pythagoras

Last reported at 2014-Aug-29 17:31 UTC. Time now 2014-Aug-29 18:22 UTC.
Position N 22°31' E 120°15'.

Length 190 m; draft 12.5 m.

Type: Cargo ship. MMSI: 311061300.

Date/timePositionNaut miles runAvg speedWind from/ knotsBaromVisibWave heightAir tempDewpointWater temp
2014-Aug-29 17:31N 22°31' E 120°15'0 0.1
2014-Aug-29 16:31N 22°31' E 120°15'0 0.0
2014-Aug-29 15:31N 22°32' E 120°15'0 0.0
2014-Aug-29 14:31N 22°32' E 120°15'0 0.1
2014-Aug-29 13:31N 22°32' E 120°15'0 0.0
2014-Aug-29 12:31N 22°32' E 120°15'0 0.1
2014-Aug-29 11:31N 22°32' E 120°15'0 0.0
2014-Aug-29 10:31N 22°32' E 120°15'0 0.1
2014-Aug-29 09:31N 22°32' E 120°15'0 0.0
2014-Aug-29 08:31N 22°32' E 120°15'0 0.2
2014-Aug-29 07:25N 22°32' E 120°15'5 5.4
2014-Aug-29 06:33N 22°29' E 120°11'1010.1
2014-Aug-29 05:33N 22°22' E 120°03'1211.5
2014-Aug-29 04:32N 22°13' E 119°56'  
2014-Aug-23 03:26N 01°17' E 103°59'0 0.0
2014-Aug-23 02:29N 01°17' E 103°59'0 0.0
2014-Aug-23 01:29N 01°17' E 103°59'0 0.0
2014-Aug-23 00:23N 01°17' E 103°59'0 0.2
2014-Aug-22 23:32N 01°17' E 103°59'0 0.1
2014-Aug-22 22:33N 01°17' E 103°59'3 3.2
2014-Aug-22 21:33N 01°15' E 103°57'7 7.2
2014-Aug-22 20:33N 01°11' E 103°51'  
Track history (hours):
 
Tides and Currents Weather Stations Pressure Air Temp Water Temp Dewpoint Dewpoint Depression Visibility Wind Speed Wind Dir Waves Ship Positions

Pythagoras

Last reported at 2014-Aug-29 17:31 UTC. Time now 2014-Aug-29 18:22 UTC.
Position N 22°31' E 120°15'.

Length 190 m; draft 12.5 m.

Type: Cargo ship. MMSI: 311061300.

Date/timePositionNaut miles runAvg speedWind from/ knotsBaromVisibWave heightAir tempDewpointWater temp
2014-Aug-29 17:31N 22°31' E 120°15'0 0.1
2014-Aug-29 16:31N 22°31' E 120°15'0 0.0
2014-Aug-29 15:31N 22°32' E 120°15'0 0.0
2014-Aug-29 14:31N 22°32' E 120°15'0 0.1
2014-Aug-29 13:31N 22°32' E 120°15'0 0.0
2014-Aug-29 12:31N 22°32' E 120°15'0 0.1
2014-Aug-29 11:31N 22°32' E 120°15'0 0.0
2014-Aug-29 10:31N 22°32' E 120°15'0 0.1
2014-Aug-29 09:31N 22°32' E 120°15'0 0.0
2014-Aug-29 08:31N 22°32' E 120°15'0 0.2
2014-Aug-29 07:25N 22°32' E 120°15'5 5.4
2014-Aug-29 06:33N 22°29' E 120°11'1010.1
2014-Aug-29 05:33N 22°22' E 120°03'1211.5
2014-Aug-29 04:32N 22°13' E 119°56'  
2014-Aug-23 03:26N 01°17' E 103°59'0 0.0
2014-Aug-23 02:29N 01°17' E 103°59'0 0.0
2014-Aug-23 01:29N 01°17' E 103°59'0 0.0
2014-Aug-23 00:23N 01°17' E 103°59'0 0.2
2014-Aug-22 23:32N 01°17' E 103°59'0 0.1
2014-Aug-22 22:33N 01°17' E 103°59'3 3.2
2014-Aug-22 21:33N 01°15' E 103°57'7 7.2
2014-Aug-22 20:33N 01°11' E 103°51'  

Dump ship's entire track history